SVA375 GMMN-OEJN
Flight info
| Callsign | SVA375 |
|---|---|
| Flight time | N/A |
| Altitude | 34000 |
| Route | SADIC R975 FES UT900 ARIAM UM999 IMN M999 MUVOL |
| Aircraft | B77W/H-SDE1E2E3FGHIJ2J3J4J5M1RWXY/LB1D1 |
Departure
| Time | 2026-05-07 17:46 |
|---|---|
| Airport | Mohammed V International Airport (GMMN) |
Arrival
| Time | N/A |
|---|---|
| Airport | King Abdulaziz International Airport (OEJN) |
| Time | Latitude | Longitude | Altitude | Speed | Heading |
|---|---|---|---|---|---|
| 2026-05-07 16:25 | 33.37622 | -7.58346 | 657 ft | 0 kts | 122° |
| 2026-05-07 16:50 | 33.37627 | -7.58356 | 657 ft | 4 kts | 121° |
| 2026-05-07 16:50 | 33.37641 | -7.58384 | 657 ft | 4 kts | 121° |
| 2026-05-07 16:50 | 33.37656 | -7.58410 | 656 ft | 3 kts | 133° |
| 2026-05-07 16:51 | 33.37671 | -7.58428 | 656 ft | 4 kts | 139° |
| 2026-05-07 16:51 | 33.37693 | -7.58447 | 656 ft | 4 kts | 154° |
| 2026-05-07 16:51 | 33.37709 | -7.58455 | 656 ft | 0 kts | 165° |
| 2026-05-07 16:56 | 33.37680 | -7.58508 | 658 ft | 6 kts | 296° |
| 2026-05-07 16:57 | 33.37716 | -7.58523 | 658 ft | 6 kts | 6° |
| 2026-05-07 16:57 | 33.37759 | -7.58513 | 658 ft | 6 kts | 14° |
| 2026-05-07 16:57 | 33.37802 | -7.58509 | 658 ft | 6 kts | 346° |
| 2026-05-07 16:57 | 33.37836 | -7.58541 | 657 ft | 6 kts | 313° |
| 2026-05-07 16:58 | 33.37865 | -7.58583 | 658 ft | 6 kts | 308° |
| 2026-05-07 16:58 | 33.37891 | -7.58625 | 658 ft | 6 kts | 304° |
| 2026-05-07 16:58 | 33.37907 | -7.58675 | 658 ft | 7 kts | 278° |
| 2026-05-07 16:58 | 33.37903 | -7.58729 | 658 ft | 7 kts | 259° |
| 2026-05-07 16:59 | 33.37890 | -7.58781 | 657 ft | 7 kts | 240° |
| 2026-05-07 16:59 | 33.37854 | -7.58801 | 657 ft | 5 kts | 178° |
| 2026-05-07 16:59 | 33.37792 | -7.58786 | 657 ft | 18 kts | 164° |
| 2026-05-07 16:59 | 33.37666 | -7.58742 | 657 ft | 19 kts | 164° |
| 2026-05-07 17:00 | 33.37540 | -7.58699 | 657 ft | 19 kts | 164° |
| 2026-05-07 17:00 | 33.37413 | -7.58657 | 657 ft | 19 kts | 165° |
| 2026-05-07 17:00 | 33.37287 | -7.58613 | 658 ft | 19 kts | 163° |
| 2026-05-07 17:00 | 33.37161 | -7.58569 | 658 ft | 19 kts | 164° |
| 2026-05-07 17:01 | 33.37036 | -7.58527 | 658 ft | 19 kts | 165° |
| 2026-05-07 17:01 | 33.36910 | -7.58483 | 658 ft | 19 kts | 164° |
| 2026-05-07 17:01 | 33.36784 | -7.58441 | 658 ft | 19 kts | 164° |
| 2026-05-07 17:01 | 33.36657 | -7.58398 | 658 ft | 19 kts | 164° |
| 2026-05-07 17:02 | 33.36531 | -7.58354 | 658 ft | 19 kts | 164° |
| 2026-05-07 17:02 | 33.36405 | -7.58311 | 657 ft | 19 kts | 164° |
| 2026-05-07 17:02 | 33.36279 | -7.58268 | 657 ft | 19 kts | 164° |
| 2026-05-07 17:02 | 33.36153 | -7.58224 | 657 ft | 19 kts | 163° |
| 2026-05-07 17:03 | 33.36029 | -7.58181 | 657 ft | 19 kts | 164° |
| 2026-05-07 17:03 | 33.35903 | -7.58139 | 657 ft | 19 kts | 165° |
| 2026-05-07 17:03 | 33.35776 | -7.58097 | 657 ft | 19 kts | 165° |
| 2026-05-07 17:03 | 33.35650 | -7.58053 | 657 ft | 19 kts | 163° |
| 2026-05-07 17:04 | 33.35523 | -7.58010 | 657 ft | 19 kts | 164° |
| 2026-05-07 17:04 | 33.35436 | -7.57979 | 657 ft | 12 kts | 164° |
| 2026-05-07 17:04 | 33.35416 | -7.57973 | 656 ft | 0 kts | 164° |
| 2026-05-07 17:06 | 33.35362 | -7.57954 | 657 ft | 0 kts | 164° |
| 2026-05-07 17:08 | 33.35342 | -7.57949 | 657 ft | 9 kts | 169° |
| 2026-05-07 17:08 | 33.35279 | -7.57966 | 657 ft | 10 kts | 217° |
| 2026-05-07 17:08 | 33.35266 | -7.57986 | 657 ft | 0 kts | 240° |
| 2026-05-07 17:10 | 33.35265 | -7.57988 | 657 ft | 2 kts | 240° |
| 2026-05-07 17:10 | 33.35263 | -7.57994 | 657 ft | 0 kts | 242° |
| 2026-05-07 17:10 | 33.35249 | -7.58033 | 657 ft | 10 kts | 253° |
| 2026-05-07 17:10 | 33.35238 | -7.58073 | 657 ft | 0 kts | 253° |
| 2026-05-07 17:15 | 33.35234 | -7.58090 | 658 ft | 9 kts | 253° |
| 2026-05-07 17:15 | 33.35215 | -7.58203 | 659 ft | 12 kts | 278° |
| 2026-05-07 17:15 | 33.35266 | -7.58274 | 658 ft | 5 kts | 338° |
| 2026-05-07 17:15 | 33.35267 | -7.58274 | 658 ft | 0 kts | 338° |
| 2026-05-07 17:18 | 33.35327 | -7.58297 | 657 ft | 24 kts | 343° |
| 2026-05-07 17:18 | 33.35616 | -7.58396 | 651 ft | 58 kts | 344° |
| 2026-05-07 17:19 | 33.35979 | -7.58516 | 650 ft | 47 kts | 343° |
| 2026-05-07 17:19 | 33.36173 | -7.58538 | 654 ft | 6 kts | 47° |
| 2026-05-07 17:19 | 33.36184 | -7.58488 | 653 ft | 6 kts | 77° |
| 2026-05-07 17:19 | 33.36195 | -7.58437 | 656 ft | 6 kts | 74° |
| 2026-05-07 17:20 | 33.36206 | -7.58387 | 656 ft | 6 kts | 74° |
| 2026-05-07 17:20 | 33.36218 | -7.58337 | 657 ft | 6 kts | 73° |
| 2026-05-07 17:20 | 33.36226 | -7.58286 | 657 ft | 6 kts | 95° |
| 2026-05-07 17:20 | 33.36201 | -7.58245 | 657 ft | 6 kts | 153° |
| 2026-05-07 17:21 | 33.36159 | -7.58226 | 657 ft | 7 kts | 161° |
| 2026-05-07 17:21 | 33.36115 | -7.58211 | 657 ft | 7 kts | 163° |
| 2026-05-07 17:21 | 33.36071 | -7.58195 | 657 ft | 7 kts | 164° |
| 2026-05-07 17:21 | 33.36027 | -7.58181 | 657 ft | 7 kts | 164° |
| 2026-05-07 17:22 | 33.35983 | -7.58166 | 657 ft | 7 kts | 165° |
| 2026-05-07 17:22 | 33.35938 | -7.58151 | 657 ft | 8 kts | 164° |
| 2026-05-07 17:22 | 33.35832 | -7.58115 | 657 ft | 19 kts | 163° |
| 2026-05-07 17:22 | 33.35708 | -7.58072 | 657 ft | 19 kts | 165° |
| 2026-05-07 17:23 | 33.35583 | -7.58030 | 657 ft | 19 kts | 164° |
| 2026-05-07 17:23 | 33.35507 | -7.58004 | 657 ft | 0 kts | 163° |
| 2026-05-07 17:26 | 33.35499 | -7.58001 | 657 ft | 5 kts | 163° |
| 2026-05-07 17:26 | 33.35464 | -7.57989 | 657 ft | 5 kts | 163° |
| 2026-05-07 17:27 | 33.35428 | -7.57976 | 657 ft | 5 kts | 163° |
| 2026-05-07 17:27 | 33.35403 | -7.57968 | 657 ft | 0 kts | 164° |
| 2026-05-07 17:28 | 33.35389 | -7.57963 | 657 ft | 6 kts | 163° |
| 2026-05-07 17:29 | 33.35372 | -7.57958 | 657 ft | 0 kts | 163° |
| 2026-05-07 17:33 | 33.35362 | -7.57954 | 657 ft | 6 kts | 163° |
| 2026-05-07 17:33 | 33.35336 | -7.57947 | 657 ft | 0 kts | 171° |
| 2026-05-07 17:34 | 33.35314 | -7.57945 | 657 ft | 5 kts | 181° |
| 2026-05-07 17:34 | 33.35308 | -7.57946 | 657 ft | 0 kts | 187° |
| 2026-05-07 17:37 | 33.35298 | -7.57948 | 657 ft | 3 kts | 191° |
| 2026-05-07 17:37 | 33.35278 | -7.57963 | 657 ft | 3 kts | 220° |
| 2026-05-07 17:37 | 33.35267 | -7.57983 | 657 ft | 0 kts | 238° |
| 2026-05-07 17:40 | 33.35251 | -7.58028 | 657 ft | 9 kts | 249° |
| 2026-05-07 17:41 | 33.35239 | -7.58072 | 657 ft | 0 kts | 252° |
| 2026-05-07 17:43 | 33.35218 | -7.58154 | 658 ft | 16 kts | 255° |
| 2026-05-07 17:43 | 33.35245 | -7.58263 | 659 ft | 12 kts | 326° |
| 2026-05-07 17:43 | 33.35276 | -7.58279 | 658 ft | 0 kts | 341° |
| 2026-05-07 17:45 | 33.35402 | -7.58324 | 655 ft | 46 kts | 344° |
| 2026-05-07 17:45 | 33.35962 | -7.58513 | 650 ft | 118 kts | 345° |
| 2026-05-07 17:45 | 33.36917 | -7.58838 | 659 ft | 169 kts | 345° |
| 2026-05-07 17:46 | 33.38119 | -7.59261 | 1013 ft | 184 kts | 345° |
| 2026-05-07 17:46 | 33.39378 | -7.59715 | 1635 ft | 186 kts | 345° |
| 2026-05-07 17:46 | 33.40583 | -7.60128 | 2461 ft | 181 kts | 347° |
| 2026-05-07 17:46 | 33.41901 | -7.60291 | 2705 ft | 205 kts | 5° |
| 2026-05-07 17:47 | 33.43370 | -7.59830 | 2933 ft | 233 kts | 22° |
| 2026-05-07 17:47 | 33.44768 | -7.58726 | 3485 ft | 246 kts | 39° |
| 2026-05-07 17:47 | 33.45971 | -7.57197 | 4101 ft | 259 kts | 48° |
| 2026-05-07 17:47 | 33.47140 | -7.55497 | 4729 ft | 269 kts | 50° |
| 2026-05-07 17:48 | 33.48244 | -7.53688 | 5288 ft | 276 kts | 64° |
| 2026-05-07 17:48 | 33.48895 | -7.51497 | 5963 ft | 281 kts | 76° |
| 2026-05-07 17:48 | 33.49353 | -7.49205 | 6733 ft | 282 kts | 80° |
| 2026-05-07 17:48 | 33.49780 | -7.46892 | 7467 ft | 286 kts | 79° |
| 2026-05-07 17:49 | 33.50217 | -7.44563 | 8192 ft | 289 kts | 79° |
| 2026-05-07 17:49 | 33.50675 | -7.42187 | 8796 ft | 298 kts | 79° |
| 2026-05-07 17:49 | 33.51163 | -7.39734 | 9382 ft | 306 kts | 78° |
| 2026-05-07 17:49 | 33.51673 | -7.37229 | 10022 ft | 312 kts | 78° |
| 2026-05-07 17:50 | 33.52204 | -7.34658 | 10429 ft | 328 kts | 78° |
| 2026-05-07 17:50 | 33.52778 | -7.31900 | 10610 ft | 353 kts | 78° |
| 2026-05-07 17:50 | 33.53398 | -7.28945 | 10794 ft | 377 kts | 78° |
| 2026-05-07 17:50 | 33.53832 | -7.26886 | 10973 ft | 390 kts | 78° |
| 2026-05-07 17:51 | 33.54736 | -7.22635 | 11829 ft | 404 kts | 78° |
| 2026-05-07 17:51 | 33.55438 | -7.19340 | 12653 ft | 410 kts | 78° |
| 2026-05-07 17:51 | 33.56148 | -7.16009 | 13596 ft | 413 kts | 78° |
| 2026-05-07 17:51 | 33.56864 | -7.12639 | 14386 ft | 419 kts | 78° |
| 2026-05-07 17:52 | 33.57342 | -7.10387 | 14812 ft | 424 kts | 78° |
| 2026-05-07 17:52 | 33.58074 | -7.06929 | 14942 ft | 429 kts | 78° |
| 2026-05-07 17:52 | 33.59050 | -7.02319 | 15090 ft | 431 kts | 77° |
| 2026-05-07 17:52 | 33.59549 | -6.99953 | 15566 ft | 436 kts | 77° |
| 2026-05-07 17:53 | 33.60297 | -6.96404 | 16402 ft | 440 kts | 77° |
| 2026-05-07 17:53 | 33.61049 | -6.92830 | 17187 ft | 445 kts | 77° |
| 2026-05-07 17:53 | 33.61801 | -6.89248 | 17899 ft | 451 kts | 77° |
| 2026-05-07 17:53 | 33.62572 | -6.85568 | 18527 ft | 459 kts | 77° |
| 2026-05-07 17:54 | 33.63355 | -6.81826 | 19143 ft | 464 kts | 77° |
| 2026-05-07 17:54 | 33.64149 | -6.78028 | 19782 ft | 470 kts | 77° |
| 2026-05-07 17:54 | 33.64939 | -6.74245 | 20395 ft | 475 kts | 77° |
| 2026-05-07 17:54 | 33.65747 | -6.70366 | 21001 ft | 480 kts | 77° |
| 2026-05-07 17:55 | 33.66560 | -6.66453 | 21581 ft | 487 kts | 77° |
| 2026-05-07 17:55 | 33.67386 | -6.62478 | 22170 ft | 492 kts | 77° |
| 2026-05-07 17:55 | 33.68217 | -6.58468 | 22767 ft | 497 kts | 77° |
| 2026-05-07 17:55 | 33.69055 | -6.54418 | 23325 ft | 502 kts | 77° |
| 2026-05-07 17:56 | 33.69902 | -6.50321 | 23810 ft | 507 kts | 77° |
| 2026-05-07 17:56 | 33.70742 | -6.46243 | 24325 ft | 511 kts | 77° |
| 2026-05-07 17:56 | 33.71597 | -6.42088 | 24868 ft | 514 kts | 77° |
| 2026-05-07 17:56 | 33.72456 | -6.37905 | 25397 ft | 517 kts | 77° |
| 2026-05-07 17:57 | 33.73316 | -6.33696 | 25902 ft | 520 kts | 77° |
| 2026-05-07 17:57 | 33.74058 | -6.29428 | 26370 ft | 523 kts | 80° |
| 2026-05-07 17:57 | 33.74718 | -6.25121 | 26838 ft | 526 kts | 81° |
| 2026-05-07 17:57 | 33.75348 | -6.20815 | 27302 ft | 529 kts | 81° |
| 2026-05-07 17:58 | 33.75982 | -6.16444 | 27768 ft | 532 kts | 81° |
| 2026-05-07 17:58 | 33.76626 | -6.12047 | 28209 ft | 535 kts | 81° |
| 2026-05-07 17:58 | 33.77281 | -6.07630 | 28614 ft | 538 kts | 81° |
| 2026-05-07 17:58 | 33.77948 | -6.03175 | 29003 ft | 541 kts | 80° |
| 2026-05-07 17:59 | 33.78618 | -5.98709 | 29389 ft | 544 kts | 80° |
| 2026-05-07 17:59 | 33.79282 | -5.94280 | 29737 ft | 546 kts | 80° |
| 2026-05-07 17:59 | 33.79957 | -5.89765 | 30068 ft | 549 kts | 80° |
| 2026-05-07 17:59 | 33.80631 | -5.85235 | 30465 ft | 548 kts | 80° |
| 2026-05-07 18:00 | 33.81299 | -5.80728 | 30913 ft | 546 kts | 80° |
| 2026-05-07 18:00 | 33.81964 | -5.76232 | 31351 ft | 545 kts | 80° |
| 2026-05-07 18:00 | 33.82624 | -5.71744 | 31751 ft | 544 kts | 80° |
| 2026-05-07 18:00 | 33.83273 | -5.67302 | 32135 ft | 544 kts | 80° |
| 2026-05-07 18:01 | 33.83924 | -5.62829 | 32535 ft | 543 kts | 79° |
| 2026-05-07 18:01 | 33.84574 | -5.58346 | 32925 ft | 542 kts | 79° |
| 2026-05-07 18:01 | 33.85223 | -5.53871 | 33304 ft | 542 kts | 79° |
| 2026-05-07 18:01 | 33.85867 | -5.49410 | 33672 ft | 541 kts | 79° |
| 2026-05-07 18:02 | 33.87159 | -5.40437 | 34001 ft | 546 kts | 79° |
| 2026-05-07 18:02 | 33.87795 | -5.36002 | 34376 ft | 543 kts | 79° |
| 2026-05-07 18:02 | 33.88433 | -5.31543 | 34819 ft | 538 kts | 79° |
| 2026-05-07 18:03 | 33.89066 | -5.27105 | 35249 ft | 535 kts | 79° |
| 2026-05-07 18:03 | 33.89694 | -5.22687 | 35622 ft | 533 kts | 79° |
| 2026-05-07 18:03 | 33.90318 | -5.18290 | 35860 ft | 533 kts | 79° |
| 2026-05-07 18:04 | 33.91561 | -5.09508 | 35934 ft | 535 kts | 79° |
| 2026-05-07 18:04 | 33.92678 | -5.00663 | 35930 ft | 532 kts | 84° |
| 2026-05-07 18:05 | 33.92835 | -4.91771 | 35943 ft | 528 kts | 90° |
| 2026-05-07 18:05 | 33.92773 | -4.82926 | 35932 ft | 527 kts | 91° |
| 2026-05-07 18:06 | 33.92733 | -4.74146 | 35950 ft | 527 kts | 90° |
| 2026-05-07 18:06 | 33.92723 | -4.65299 | 35932 ft | 528 kts | 90° |
| 2026-05-07 18:07 | 33.92721 | -4.56441 | 35943 ft | 529 kts | 90° |
| 2026-05-07 18:07 | 33.92711 | -4.47569 | 35938 ft | 530 kts | 90° |
| 2026-05-07 18:08 | 33.92693 | -4.38679 | 35937 ft | 530 kts | 90° |
| 2026-05-07 18:08 | 33.92666 | -4.29856 | 35949 ft | 530 kts | 91° |
| 2026-05-07 18:09 | 33.92633 | -4.20958 | 35942 ft | 530 kts | 91° |
| 2026-05-07 18:09 | 33.92594 | -4.12079 | 35940 ft | 530 kts | 91° |
| 2026-05-07 18:10 | 33.92549 | -4.03206 | 35943 ft | 529 kts | 91° |
| 2026-05-07 18:10 | 33.92498 | -3.94352 | 35927 ft | 528 kts | 91° |
| 2026-05-07 18:11 | 33.92440 | -3.85502 | 35924 ft | 528 kts | 91° |
| 2026-05-07 18:11 | 33.92376 | -3.76656 | 35911 ft | 528 kts | 91° |
| 2026-05-07 18:12 | 33.92305 | -3.67867 | 35915 ft | 528 kts | 91° |
| 2026-05-07 18:12 | 33.92229 | -3.59009 | 35906 ft | 528 kts | 91° |
| 2026-05-07 18:13 | 33.92146 | -3.50149 | 35909 ft | 528 kts | 91° |
| 2026-05-07 18:13 | 33.92056 | -3.41303 | 35909 ft | 529 kts | 92° |
| 2026-05-07 18:14 | 33.91961 | -3.32493 | 35907 ft | 529 kts | 92° |
| 2026-05-07 18:14 | 33.91858 | -3.23619 | 35914 ft | 529 kts | 92° |
| 2026-05-07 18:15 | 33.91749 | -3.14750 | 35909 ft | 530 kts | 92° |
| 2026-05-07 18:15 | 33.91635 | -3.05927 | 35904 ft | 529 kts | 92° |
| 2026-05-07 18:16 | 33.91514 | -2.97056 | 35908 ft | 528 kts | 92° |
| 2026-05-07 18:16 | 33.91387 | -2.88216 | 35914 ft | 527 kts | 92° |
| 2026-05-07 18:17 | 33.91254 | -2.79433 | 35911 ft | 527 kts | 92° |
| 2026-05-07 18:17 | 33.91114 | -2.70560 | 35912 ft | 526 kts | 92° |
| 2026-05-07 18:18 | 33.90968 | -2.61772 | 35914 ft | 525 kts | 92° |
| 2026-05-07 18:18 | 33.90817 | -2.52996 | 35912 ft | 524 kts | 92° |
| 2026-05-07 18:19 | 33.90660 | -2.44271 | 35913 ft | 524 kts | 92° |
| 2026-05-07 18:19 | 33.90497 | -2.35499 | 35918 ft | 524 kts | 92° |
| 2026-05-07 18:20 | 33.90327 | -2.26714 | 35918 ft | 524 kts | 92° |
| 2026-05-07 18:20 | 33.90150 | -2.17929 | 35923 ft | 525 kts | 92° |
| 2026-05-07 18:21 | 33.89968 | -2.09164 | 35935 ft | 526 kts | 92° |
| 2026-05-07 18:21 | 33.89779 | -2.00345 | 35930 ft | 527 kts | 92° |
| 2026-05-07 18:22 | 33.89583 | -1.91517 | 35938 ft | 528 kts | 92° |
| 2026-05-07 18:22 | 33.89380 | -1.82672 | 35937 ft | 529 kts | 92° |
| 2026-05-07 18:23 | 33.89172 | -1.73811 | 35943 ft | 529 kts | 92° |
| 2026-05-07 18:23 | 33.88414 | -1.65107 | 35930 ft | 525 kts | 109° |
| 2026-05-07 18:24 | 33.85335 | -1.57236 | 35947 ft | 516 kts | 130° |
| 2026-05-07 18:24 | 33.80788 | -1.50637 | 35944 ft | 513 kts | 135° |
| 2026-05-07 18:25 | 33.76151 | -1.44105 | 35941 ft | 516 kts | 134° |
| 2026-05-07 18:25 | 33.71516 | -1.37468 | 35939 ft | 519 kts | 134° |
| 2026-05-07 18:26 | 33.66896 | -1.30782 | 35937 ft | 521 kts | 133° |
| 2026-05-07 18:26 | 33.62267 | -1.24078 | 35938 ft | 521 kts | 133° |
| 2026-05-07 18:27 | 33.57665 | -1.17429 | 35937 ft | 521 kts | 134° |
| 2026-05-07 18:27 | 33.53025 | -1.10746 | 35942 ft | 520 kts | 134° |
| 2026-05-07 18:28 | 33.48417 | -1.04124 | 35935 ft | 520 kts | 134° |
| 2026-05-07 18:28 | 33.43789 | -0.97484 | 35936 ft | 519 kts | 134° |
| 2026-05-07 18:29 | 33.39162 | -0.90858 | 35938 ft | 518 kts | 134° |
| 2026-05-07 18:29 | 33.34526 | -0.84230 | 35928 ft | 518 kts | 134° |
| 2026-05-07 18:30 | 33.29902 | -0.77634 | 35933 ft | 518 kts | 134° |
| 2026-05-07 18:30 | 33.25269 | -0.71035 | 35932 ft | 518 kts | 134° |
| 2026-05-07 18:31 | 33.20631 | -0.64440 | 35934 ft | 518 kts | 134° |
| 2026-05-07 18:31 | 33.15996 | -0.57863 | 35929 ft | 518 kts | 134° |
| 2026-05-07 18:32 | 33.11379 | -0.51321 | 35922 ft | 518 kts | 134° |
| 2026-05-07 18:32 | 33.06724 | -0.44739 | 35920 ft | 517 kts | 134° |
| 2026-05-07 18:33 | 33.02082 | -0.38187 | 35912 ft | 517 kts | 134° |
| 2026-05-07 18:33 | 32.97427 | -0.31627 | 35909 ft | 516 kts | 134° |
| 2026-05-07 18:34 | 32.92822 | -0.25150 | 35907 ft | 516 kts | 134° |
| 2026-05-07 18:34 | 32.88176 | -0.18626 | 35884 ft | 515 kts | 134° |
| 2026-05-07 18:35 | 32.83547 | -0.12138 | 35886 ft | 514 kts | 134° |
| 2026-05-07 18:35 | 32.78926 | -0.05672 | 35873 ft | 513 kts | 134° |
| 2026-05-07 18:36 | 32.74332 | 0.00744 | 35881 ft | 512 kts | 134° |
| 2026-05-07 18:36 | 32.69712 | 0.07182 | 35862 ft | 511 kts | 134° |
| 2026-05-07 18:37 | 32.65089 | 0.13616 | 35853 ft | 511 kts | 134° |
| 2026-05-07 18:37 | 32.60472 | 0.20031 | 35849 ft | 511 kts | 135° |
| 2026-05-07 18:38 | 32.55854 | 0.26436 | 35839 ft | 511 kts | 135° |
| 2026-05-07 18:38 | 32.51229 | 0.32838 | 35825 ft | 511 kts | 135° |
| 2026-05-07 18:39 | 32.46629 | 0.39196 | 35842 ft | 511 kts | 135° |
| 2026-05-07 18:39 | 32.41999 | 0.45585 | 35825 ft | 510 kts | 135° |
| 2026-05-07 18:40 | 32.38153 | 0.50885 | 35817 ft | 510 kts | 135° |
| 2026-05-07 18:40 | 32.33523 | 0.57252 | 35808 ft | 510 kts | 135° |
| 2026-05-07 18:41 | 32.28890 | 0.63615 | 35814 ft | 509 kts | 135° |
| 2026-05-07 18:41 | 32.24265 | 0.69954 | 35808 ft | 509 kts | 135° |
| 2026-05-07 18:42 | 32.19669 | 0.76243 | 35797 ft | 508 kts | 136° |
| 2026-05-07 18:42 | 32.15044 | 0.82562 | 35796 ft | 508 kts | 136° |
| 2026-05-07 18:43 | 32.10421 | 0.88868 | 35786 ft | 508 kts | 136° |
| 2026-05-07 18:43 | 32.05798 | 0.95162 | 35787 ft | 507 kts | 136° |
| 2026-05-07 18:44 | 32.01176 | 1.01446 | 35782 ft | 506 kts | 136° |
| 2026-05-07 18:44 | 31.96595 | 1.07664 | 35780 ft | 505 kts | 137° |
| 2026-05-07 18:45 | 31.91995 | 1.13899 | 35777 ft | 503 kts | 137° |
| 2026-05-07 18:45 | 31.87318 | 1.19995 | 35776 ft | 497 kts | 143° |
| 2026-05-07 18:46 | 31.82154 | 1.25339 | 35778 ft | 492 kts | 146° |
| 2026-05-07 18:46 | 31.76994 | 1.30547 | 35777 ft | 492 kts | 146° |
| 2026-05-07 18:47 | 31.71827 | 1.35826 | 35776 ft | 491 kts | 146° |
| 2026-05-07 18:47 | 31.66679 | 1.41112 | 35765 ft | 491 kts | 146° |
| 2026-05-07 18:48 | 31.61526 | 1.46394 | 35785 ft | 491 kts | 146° |
| 2026-05-07 18:48 | 31.56539 | 1.51826 | 35786 ft | 498 kts | 139° |
| 2026-05-07 18:49 | 31.51979 | 1.58005 | 35787 ft | 500 kts | 138° |
| 2026-05-07 18:49 | 31.47471 | 1.64212 | 35783 ft | 500 kts | 138° |
| 2026-05-07 18:50 | 31.42933 | 1.70397 | 35787 ft | 499 kts | 139° |
| 2026-05-07 18:50 | 31.38386 | 1.76540 | 35787 ft | 499 kts | 139° |
| 2026-05-07 18:51 | 31.33868 | 1.82623 | 35791 ft | 498 kts | 139° |
| 2026-05-07 18:51 | 31.29320 | 1.88737 | 35795 ft | 498 kts | 140° |
| 2026-05-07 18:52 | 31.24778 | 1.94837 | 35796 ft | 497 kts | 140° |
| 2026-05-07 18:52 | 31.20230 | 2.00937 | 35797 ft | 497 kts | 140° |
| 2026-05-07 18:53 | 31.15687 | 2.07019 | 35803 ft | 497 kts | 140° |
| 2026-05-07 18:53 | 31.11141 | 2.13098 | 35803 ft | 496 kts | 140° |
| 2026-05-07 18:54 | 31.06598 | 2.19162 | 35800 ft | 496 kts | 140° |
| 2026-05-07 18:54 | 31.02055 | 2.25217 | 35801 ft | 495 kts | 141° |
| 2026-05-07 18:55 | 30.97549 | 2.31212 | 35803 ft | 494 kts | 141° |
| 2026-05-07 18:55 | 30.93019 | 2.37230 | 35805 ft | 493 kts | 141° |
| 2026-05-07 18:56 | 30.88489 | 2.43239 | 35807 ft | 493 kts | 141° |
| 2026-05-07 18:56 | 30.83959 | 2.49237 | 35806 ft | 493 kts | 142° |
| 2026-05-07 18:57 | 30.79458 | 2.55188 | 35809 ft | 493 kts | 142° |
| 2026-05-07 18:57 | 30.74912 | 2.61190 | 35815 ft | 493 kts | 142° |
| 2026-05-07 18:58 | 30.70374 | 2.67174 | 35832 ft | 493 kts | 142° |
| 2026-05-07 18:58 | 30.65827 | 2.73159 | 35842 ft | 494 kts | 142° |
| 2026-05-07 18:59 | 30.61269 | 2.79152 | 35867 ft | 495 kts | 142° |
| 2026-05-07 18:59 | 30.56718 | 2.85141 | 35846 ft | 497 kts | 141° |
| 2026-05-07 19:00 | 30.52630 | 2.91699 | 35863 ft | 508 kts | 133° |
| 2026-05-07 19:00 | 30.48765 | 2.98598 | 35846 ft | 510 kts | 133° |
| 2026-05-07 19:01 | 30.44883 | 3.05498 | 35836 ft | 510 kts | 133° |
| 2026-05-07 19:01 | 30.40966 | 3.12368 | 35829 ft | 511 kts | 133° |
| 2026-05-07 19:02 | 30.37060 | 3.19180 | 35820 ft | 511 kts | 133° |
| 2026-05-07 19:02 | 30.33122 | 3.26034 | 35824 ft | 512 kts | 133° |
| 2026-05-07 19:03 | 30.29173 | 3.32900 | 35819 ft | 512 kts | 133° |
| 2026-05-07 19:03 | 30.25221 | 3.39764 | 35821 ft | 513 kts | 133° |
| 2026-05-07 19:04 | 30.21256 | 3.46639 | 35826 ft | 513 kts | 133° |
| 2026-05-07 19:04 | 30.17305 | 3.53475 | 35816 ft | 514 kts | 133° |
| 2026-05-07 19:05 | 30.13326 | 3.60350 | 35824 ft | 515 kts | 133° |
| 2026-05-07 19:05 | 30.09335 | 3.67234 | 35831 ft | 516 kts | 133° |
| 2026-05-07 19:06 | 30.05324 | 3.74144 | 35829 ft | 517 kts | 133° |
| 2026-05-07 19:06 | 29.99069 | 3.84177 | 35828 ft | 513 kts | 137° |
| 2026-05-07 19:07 | 29.94695 | 3.90699 | 35830 ft | 514 kts | 137° |
| 2026-05-07 19:07 | 29.90317 | 3.97254 | 35831 ft | 516 kts | 137° |
| 2026-05-07 19:08 | 29.85959 | 4.03821 | 35843 ft | 516 kts | 137° |
| 2026-05-07 19:08 | 29.81603 | 4.10384 | 35836 ft | 515 kts | 137° |
| 2026-05-07 19:09 | 29.77273 | 4.16891 | 35834 ft | 514 kts | 137° |
| 2026-05-07 19:09 | 29.72920 | 4.23422 | 35837 ft | 512 kts | 137° |
| 2026-05-07 19:10 | 29.68642 | 4.29990 | 35837 ft | 515 kts | 135° |
| 2026-05-07 19:10 | 29.64583 | 4.36783 | 35841 ft | 516 kts | 134° |
| 2026-05-07 19:11 | 29.60545 | 4.43601 | 35845 ft | 516 kts | 134° |
| 2026-05-07 19:11 | 29.56463 | 4.50383 | 35856 ft | 516 kts | 134° |
| 2026-05-07 19:12 | 29.52379 | 4.57109 | 35859 ft | 517 kts | 134° |
| 2026-05-07 19:12 | 29.48249 | 4.63893 | 35861 ft | 519 kts | 134° |
| 2026-05-07 19:13 | 29.44109 | 4.70694 | 35869 ft | 520 kts | 134° |
| 2026-05-07 19:13 | 29.39963 | 4.77495 | 35864 ft | 520 kts | 134° |
| 2026-05-07 19:14 | 29.35806 | 4.84304 | 35872 ft | 520 kts | 134° |
| 2026-05-07 19:14 | 29.31675 | 4.91060 | 35864 ft | 520 kts | 134° |
| 2026-05-07 19:15 | 29.27524 | 4.97838 | 35871 ft | 519 kts | 134° |
| 2026-05-07 19:15 | 29.23387 | 5.04627 | 35877 ft | 519 kts | 134° |
| 2026-05-07 19:16 | 29.19293 | 5.11435 | 35872 ft | 518 kts | 134° |
| 2026-05-07 19:16 | 29.15213 | 5.18223 | 35874 ft | 517 kts | 134° |
| 2026-05-07 19:17 | 29.11154 | 5.24952 | 35875 ft | 516 kts | 134° |
| 2026-05-07 19:17 | 29.07067 | 5.31705 | 35890 ft | 516 kts | 134° |
| 2026-05-07 19:18 | 29.02978 | 5.38450 | 35882 ft | 516 kts | 134° |
| 2026-05-07 19:18 | 28.98893 | 5.45176 | 35882 ft | 515 kts | 134° |
| 2026-05-07 19:19 | 28.94823 | 5.51871 | 35883 ft | 515 kts | 134° |
| 2026-05-07 19:19 | 28.90734 | 5.58588 | 35883 ft | 514 kts | 134° |
| 2026-05-07 19:20 | 28.86652 | 5.65280 | 35884 ft | 513 kts | 134° |
| 2026-05-07 19:20 | 28.82571 | 5.71959 | 35883 ft | 512 kts | 134° |
| 2026-05-07 19:21 | 28.78523 | 5.78576 | 35889 ft | 512 kts | 134° |
| 2026-05-07 19:21 | 28.74445 | 5.85228 | 35885 ft | 511 kts | 134° |
| 2026-05-07 19:22 | 28.70366 | 5.91875 | 35888 ft | 511 kts | 134° |
| 2026-05-07 19:22 | 28.66285 | 5.98514 | 35890 ft | 510 kts | 134° |
| 2026-05-07 19:23 | 28.62235 | 6.05092 | 35905 ft | 510 kts | 134° |
| 2026-05-07 19:23 | 28.58152 | 6.11717 | 35907 ft | 510 kts | 134° |
| 2026-05-07 19:24 | 28.54060 | 6.18342 | 35895 ft | 511 kts | 134° |
| 2026-05-07 19:24 | 28.49964 | 6.24971 | 35903 ft | 512 kts | 133° |
| 2026-05-07 19:25 | 28.45886 | 6.31563 | 35906 ft | 512 kts | 133° |
| 2026-05-07 19:25 | 28.41777 | 6.38198 | 35900 ft | 513 kts | 133° |
| 2026-05-07 19:26 | 28.37686 | 6.44793 | 35904 ft | 514 kts | 133° |
| 2026-05-07 19:26 | 28.33561 | 6.51433 | 35899 ft | 514 kts | 133° |
| 2026-05-07 19:27 | 28.29432 | 6.58068 | 35900 ft | 515 kts | 133° |
| 2026-05-07 19:27 | 28.25291 | 6.64712 | 35906 ft | 515 kts | 133° |
| 2026-05-07 19:28 | 28.21147 | 6.71353 | 35902 ft | 516 kts | 133° |
| 2026-05-07 19:28 | 28.17695 | 6.76877 | 35900 ft | 517 kts | 133° |
| 2026-05-07 19:29 | 28.14222 | 6.84104 | 35900 ft | 535 kts | 115° |
| 2026-05-07 19:29 | 28.13069 | 6.89585 | 35909 ft | 546 kts | 101° |
| 2026-05-07 19:29 | 28.12899 | 6.92502 | 35902 ft | 550 kts | 96° |
| 2026-05-07 19:30 | 28.12841 | 7.01183 | 35902 ft | 552 kts | 94° |
| 2026-05-07 19:30 | 28.12828 | 7.09837 | 35898 ft | 553 kts | 94° |
| 2026-05-07 19:31 | 28.12719 | 7.18554 | 35899 ft | 553 kts | 95° |
| 2026-05-07 19:31 | 28.12549 | 7.27273 | 35891 ft | 552 kts | 95° |
| 2026-05-07 19:32 | 28.12371 | 7.35920 | 35892 ft | 552 kts | 95° |
| 2026-05-07 19:32 | 28.12193 | 7.44627 | 35888 ft | 551 kts | 95° |
| 2026-05-07 19:33 | 28.12014 | 7.53315 | 35888 ft | 551 kts | 95° |
| 2026-05-07 19:33 | 28.11831 | 7.61996 | 35885 ft | 551 kts | 95° |
| 2026-05-07 19:34 | 28.11642 | 7.70664 | 35880 ft | 551 kts | 95° |
| 2026-05-07 19:34 | 28.11447 | 7.79347 | 35880 ft | 551 kts | 95° |
| 2026-05-07 19:35 | 28.11248 | 7.87970 | 35877 ft | 551 kts | 95° |
| 2026-05-07 19:35 | 28.11041 | 7.96670 | 35877 ft | 552 kts | 95° |
| 2026-05-07 19:36 | 28.10828 | 8.05373 | 35868 ft | 553 kts | 95° |
| 2026-05-07 19:36 | 28.10611 | 8.14099 | 35867 ft | 554 kts | 95° |
| 2026-05-07 19:37 | 28.10389 | 8.22764 | 35869 ft | 554 kts | 95° |
| 2026-05-07 19:37 | 28.10160 | 8.31495 | 35865 ft | 555 kts | 95° |
| 2026-05-07 19:38 | 28.09924 | 8.40255 | 35863 ft | 555 kts | 95° |
| 2026-05-07 19:38 | 28.09684 | 8.49002 | 35864 ft | 556 kts | 95° |
| 2026-05-07 19:39 | 28.09439 | 8.57754 | 35861 ft | 556 kts | 95° |
| 2026-05-07 19:39 | 28.09217 | 8.66510 | 35852 ft | 556 kts | 94° |
| 2026-05-07 19:40 | 28.09032 | 8.75267 | 35853 ft | 556 kts | 94° |
| 2026-05-07 19:40 | 28.08844 | 8.83985 | 35851 ft | 557 kts | 94° |
| 2026-05-07 19:41 | 28.08640 | 8.92769 | 35842 ft | 557 kts | 94° |
| 2026-05-07 19:41 | 28.08428 | 9.01537 | 35838 ft | 557 kts | 94° |
| 2026-05-07 19:42 | 28.08210 | 9.10300 | 35832 ft | 557 kts | 94° |
| 2026-05-07 19:42 | 28.07987 | 9.19081 | 35830 ft | 558 kts | 94° |
| 2026-05-07 19:43 | 28.07758 | 9.27868 | 35834 ft | 558 kts | 94° |
| 2026-05-07 19:43 | 28.07526 | 9.36608 | 35849 ft | 559 kts | 94° |
| 2026-05-07 19:44 | 28.07286 | 9.45396 | 35863 ft | 559 kts | 94° |
| 2026-05-07 19:44 | 28.07041 | 9.54202 | 35882 ft | 559 kts | 94° |
| 2026-05-07 19:45 | 28.06773 | 9.62996 | 35885 ft | 558 kts | 96° |
| 2026-05-07 19:45 | 28.05682 | 9.71634 | 35879 ft | 552 kts | 107° |
| 2026-05-07 19:46 | 28.03845 | 9.80070 | 35875 ft | 551 kts | 108° |
| 2026-05-07 19:46 | 28.02004 | 9.88441 | 35854 ft | 551 kts | 108° |
| 2026-05-07 19:47 | 28.00195 | 9.96874 | 35835 ft | 552 kts | 107° |
| 2026-05-07 19:47 | 27.98404 | 10.05332 | 35821 ft | 552 kts | 107° |
| 2026-05-07 19:48 | 27.96621 | 10.13735 | 35815 ft | 552 kts | 107° |
| 2026-05-07 19:48 | 27.94819 | 10.22183 | 35825 ft | 551 kts | 107° |
| 2026-05-07 19:49 | 27.93012 | 10.30612 | 35818 ft | 551 kts | 107° |
| 2026-05-07 19:49 | 27.91198 | 10.39045 | 35824 ft | 551 kts | 107° |
| 2026-05-07 19:50 | 27.89382 | 10.47465 | 35823 ft | 551 kts | 107° |
| 2026-05-07 19:50 | 27.87557 | 10.55897 | 35821 ft | 551 kts | 107° |
| 2026-05-07 19:51 | 27.85737 | 10.64285 | 35817 ft | 552 kts | 107° |
| 2026-05-07 19:51 | 27.83902 | 10.72711 | 35824 ft | 552 kts | 107° |
| 2026-05-07 19:52 | 27.82068 | 10.81111 | 35816 ft | 552 kts | 107° |
| 2026-05-07 19:52 | 27.80220 | 10.89546 | 35820 ft | 552 kts | 107° |
| 2026-05-07 19:53 | 27.78366 | 10.97983 | 35818 ft | 553 kts | 106° |
| 2026-05-07 19:53 | 27.76510 | 11.06399 | 35816 ft | 553 kts | 106° |
| 2026-05-07 19:54 | 27.74658 | 11.14778 | 35811 ft | 553 kts | 106° |
| 2026-05-07 19:54 | 27.72790 | 11.23196 | 35808 ft | 553 kts | 106° |
| 2026-05-07 19:55 | 27.70915 | 11.31624 | 35808 ft | 553 kts | 106° |
| 2026-05-07 19:55 | 27.69040 | 11.40029 | 35801 ft | 552 kts | 106° |
| 2026-05-07 19:56 | 27.67159 | 11.48431 | 35800 ft | 552 kts | 106° |
| 2026-05-07 19:56 | 27.65283 | 11.56786 | 35812 ft | 552 kts | 106° |
| 2026-05-07 19:57 | 27.63394 | 11.65174 | 35801 ft | 551 kts | 106° |
| 2026-05-07 19:57 | 27.61501 | 11.73554 | 35803 ft | 551 kts | 106° |
| 2026-05-07 19:58 | 27.59600 | 11.81946 | 35801 ft | 551 kts | 106° |
| 2026-05-07 19:58 | 27.57711 | 11.90257 | 35799 ft | 550 kts | 106° |
| 2026-05-07 19:59 | 27.55803 | 11.98631 | 35793 ft | 550 kts | 106° |
| 2026-05-07 19:59 | 27.53892 | 12.06990 | 35788 ft | 549 kts | 106° |
| 2026-05-07 20:00 | 27.51982 | 12.15319 | 35804 ft | 549 kts | 106° |
| 2026-05-07 20:00 | 27.50069 | 12.23640 | 35802 ft | 548 kts | 106° |
| 2026-05-07 20:01 | 27.48165 | 12.31899 | 35801 ft | 547 kts | 106° |
| 2026-05-07 20:01 | 27.46245 | 12.40200 | 35797 ft | 546 kts | 106° |
| 2026-05-07 20:02 | 27.44325 | 12.48475 | 35805 ft | 546 kts | 106° |
| 2026-05-07 20:02 | 27.42405 | 12.56731 | 35801 ft | 545 kts | 106° |
| 2026-05-07 20:03 | 27.40481 | 12.64978 | 35802 ft | 544 kts | 106° |
| 2026-05-07 20:03 | 27.38565 | 12.73174 | 35820 ft | 544 kts | 106° |
| 2026-05-07 20:04 | 27.36639 | 12.81425 | 35816 ft | 546 kts | 105° |
| 2026-05-07 20:04 | 27.34804 | 12.89733 | 35806 ft | 547 kts | 105° |
| 2026-05-07 20:05 | 27.33002 | 12.98066 | 35808 ft | 549 kts | 105° |
| 2026-05-07 20:05 | 27.31187 | 13.06375 | 35815 ft | 551 kts | 105° |
| 2026-05-07 20:06 | 27.29334 | 13.14767 | 35820 ft | 553 kts | 105° |
| 2026-05-07 20:06 | 27.27468 | 13.23174 | 35816 ft | 554 kts | 105° |
| 2026-05-07 20:07 | 27.25611 | 13.31521 | 35817 ft | 554 kts | 105° |
| 2026-05-07 20:07 | 27.23733 | 13.39940 | 35822 ft | 555 kts | 105° |
| 2026-05-07 20:08 | 27.21853 | 13.48349 | 35820 ft | 554 kts | 105° |
| 2026-05-07 20:08 | 27.19969 | 13.56744 | 35819 ft | 553 kts | 105° |
| 2026-05-07 20:09 | 27.18096 | 13.65070 | 35821 ft | 551 kts | 105° |
| 2026-05-07 20:10 | 27.15276 | 13.77556 | 35836 ft | 548 kts | 104° |
| 2026-05-07 20:10 | 27.13406 | 13.85808 | 35838 ft | 547 kts | 105° |
| 2026-05-07 20:11 | 27.11524 | 13.94087 | 35848 ft | 546 kts | 105° |
| 2026-05-07 20:11 | 27.09640 | 14.02346 | 35850 ft | 546 kts | 104° |
| 2026-05-07 20:12 | 27.07754 | 14.10596 | 35853 ft | 545 kts | 104° |
| 2026-05-07 20:12 | 27.05863 | 14.18846 | 35861 ft | 545 kts | 104° |
| 2026-05-07 20:13 | 27.03982 | 14.27028 | 35864 ft | 545 kts | 104° |
| 2026-05-07 20:13 | 27.02082 | 14.35271 | 35870 ft | 545 kts | 104° |
| 2026-05-07 20:14 | 27.00471 | 14.43573 | 35868 ft | 545 kts | 96° |
| 2026-05-07 20:14 | 27.00110 | 14.52046 | 35879 ft | 543 kts | 85° |
| 2026-05-07 20:15 | 27.00821 | 14.60460 | 35893 ft | 541 kts | 81° |
| 2026-05-07 20:15 | 27.01675 | 14.68814 | 35887 ft | 542 kts | 81° |
| 2026-05-07 20:16 | 27.02493 | 14.77226 | 35887 ft | 543 kts | 81° |
| 2026-05-07 20:16 | 27.03267 | 14.85659 | 35893 ft | 543 kts | 81° |
| 2026-05-07 20:17 | 27.04027 | 14.94105 | 35893 ft | 544 kts | 81° |
| 2026-05-07 20:17 | 27.04779 | 15.02498 | 35892 ft | 544 kts | 81° |
| 2026-05-07 20:18 | 27.05535 | 15.10943 | 35901 ft | 543 kts | 81° |
| 2026-05-07 20:18 | 27.06159 | 15.17954 | 35906 ft | 543 kts | 81° |
| 2026-05-07 20:19 | 27.06904 | 15.26382 | 35910 ft | 542 kts | 81° |
| 2026-05-07 20:19 | 27.07642 | 15.34796 | 35912 ft | 541 kts | 81° |
| 2026-05-07 20:20 | 27.08375 | 15.43201 | 35915 ft | 541 kts | 81° |
| 2026-05-07 20:20 | 27.09104 | 15.51615 | 35929 ft | 540 kts | 81° |
| 2026-05-07 20:21 | 27.09825 | 15.60005 | 35925 ft | 540 kts | 81° |
| 2026-05-07 20:21 | 27.10537 | 15.68348 | 35936 ft | 540 kts | 81° |
| 2026-05-07 20:22 | 27.11248 | 15.76738 | 35937 ft | 539 kts | 81° |
| 2026-05-07 20:22 | 27.11954 | 15.85120 | 35939 ft | 539 kts | 81° |
| 2026-05-07 20:23 | 27.12654 | 15.93498 | 35937 ft | 539 kts | 81° |
| 2026-05-07 20:23 | 27.13344 | 16.01822 | 35942 ft | 538 kts | 81° |
| 2026-05-07 20:24 | 27.14034 | 16.10196 | 35944 ft | 537 kts | 81° |
| 2026-05-07 20:24 | 27.14717 | 16.18552 | 35962 ft | 537 kts | 81° |
| 2026-05-07 20:25 | 27.15409 | 16.26903 | 35958 ft | 536 kts | 81° |
| 2026-05-07 20:25 | 27.16259 | 16.35210 | 35968 ft | 535 kts | 79° |
| 2026-05-07 20:26 | 27.17164 | 16.43451 | 35976 ft | 534 kts | 79° |
| 2026-05-07 20:26 | 27.18051 | 16.51745 | 35974 ft | 534 kts | 79° |
| 2026-05-07 20:27 | 27.18911 | 16.60033 | 35980 ft | 534 kts | 80° |
| 2026-05-07 20:27 | 27.19761 | 16.68336 | 35989 ft | 534 kts | 80° |
| 2026-05-07 20:28 | 27.20600 | 16.76582 | 35991 ft | 534 kts | 80° |
| 2026-05-07 20:28 | 27.21441 | 16.84873 | 36003 ft | 534 kts | 80° |
| 2026-05-07 20:29 | 27.22278 | 16.93164 | 36009 ft | 534 kts | 80° |
| 2026-05-07 20:29 | 27.23112 | 17.01477 | 36014 ft | 534 kts | 80° |
| 2026-05-07 20:30 | 27.23938 | 17.09767 | 36019 ft | 534 kts | 80° |
| 2026-05-07 20:30 | 27.24754 | 17.18003 | 36023 ft | 533 kts | 80° |
| 2026-05-07 20:31 | 27.25571 | 17.26301 | 36028 ft | 533 kts | 80° |
| 2026-05-07 20:31 | 27.26380 | 17.34576 | 36031 ft | 532 kts | 80° |
| 2026-05-07 20:32 | 27.27185 | 17.42852 | 36037 ft | 532 kts | 80° |
| 2026-05-07 20:32 | 27.27979 | 17.51063 | 36035 ft | 531 kts | 80° |
| 2026-05-07 20:33 | 27.28772 | 17.59320 | 36045 ft | 530 kts | 80° |
| 2026-05-07 20:33 | 27.29559 | 17.67561 | 36037 ft | 530 kts | 80° |
| 2026-05-07 20:34 | 27.30341 | 17.75806 | 36037 ft | 529 kts | 80° |
| 2026-05-07 20:34 | 27.31117 | 17.84043 | 36036 ft | 529 kts | 80° |
| 2026-05-07 20:35 | 27.31884 | 17.92221 | 36034 ft | 528 kts | 80° |
| 2026-05-07 20:35 | 27.32649 | 18.00449 | 36030 ft | 528 kts | 80° |
| 2026-05-07 20:36 | 27.33409 | 18.08666 | 36029 ft | 528 kts | 80° |
| 2026-05-07 20:36 | 27.34164 | 18.16882 | 36033 ft | 528 kts | 80° |
| 2026-05-07 20:37 | 27.34914 | 18.25106 | 36034 ft | 528 kts | 80° |
| 2026-05-07 20:37 | 27.35656 | 18.33282 | 36031 ft | 527 kts | 81° |
| 2026-05-07 20:38 | 27.36395 | 18.41490 | 36031 ft | 527 kts | 81° |
| 2026-05-07 20:38 | 27.37131 | 18.49714 | 36029 ft | 527 kts | 81° |
| 2026-05-07 20:39 | 27.37856 | 18.57871 | 36026 ft | 527 kts | 81° |
| 2026-05-07 20:39 | 27.38582 | 18.66085 | 36034 ft | 526 kts | 81° |
| 2026-05-07 20:40 | 27.39300 | 18.74277 | 36032 ft | 526 kts | 81° |
| 2026-05-07 20:40 | 27.40013 | 18.82468 | 36034 ft | 525 kts | 81° |
| 2026-05-07 20:41 | 27.40717 | 18.90601 | 36038 ft | 524 kts | 81° |
| 2026-05-07 20:41 | 27.41420 | 18.98780 | 36038 ft | 524 kts | 81° |
| 2026-05-07 20:42 | 27.42117 | 19.06949 | 36043 ft | 523 kts | 81° |
| 2026-05-07 20:42 | 27.42808 | 19.15103 | 36042 ft | 523 kts | 82° |
| 2026-05-07 20:43 | 27.43489 | 19.23200 | 36044 ft | 522 kts | 82° |
| 2026-05-07 20:43 | 27.44169 | 19.31337 | 36043 ft | 522 kts | 82° |
| 2026-05-07 20:44 | 27.44845 | 19.39486 | 36045 ft | 522 kts | 82° |
| 2026-05-07 20:44 | 27.45515 | 19.47622 | 36050 ft | 522 kts | 82° |
| 2026-05-07 20:45 | 27.46180 | 19.55758 | 36052 ft | 522 kts | 82° |
| 2026-05-07 20:45 | 27.46838 | 19.63855 | 36056 ft | 522 kts | 82° |
| 2026-05-07 20:46 | 27.47447 | 19.72008 | 36050 ft | 522 kts | 83° |
| 2026-05-07 20:46 | 27.47918 | 19.80169 | 36058 ft | 523 kts | 83° |
| 2026-05-07 20:47 | 27.48386 | 19.88338 | 36057 ft | 522 kts | 83° |
| 2026-05-07 20:47 | 27.49532 | 20.06756 | 36065 ft | 521 kts | 81° |
| 2026-05-07 20:48 | 27.52271 | 20.39248 | 36075 ft | 520 kts | 81° |
| 2026-05-07 20:48 | 27.54844 | 20.71515 | 36071 ft | 519 kts | 81° |
| 2026-05-07 20:49 | 27.57362 | 21.04009 | 36070 ft | 518 kts | 81° |
| 2026-05-07 20:49 | 27.59605 | 21.36209 | 36082 ft | 518 kts | 83° |
| 2026-05-07 20:50 | 27.61199 | 21.68697 | 36090 ft | 516 kts | 83° |
| 2026-05-07 20:50 | 27.62761 | 22.00872 | 36091 ft | 515 kts | 83° |
| 2026-05-07 20:51 | 27.64252 | 22.33154 | 36096 ft | 514 kts | 83° |
| 2026-05-07 20:51 | 27.61200 | 22.65158 | 36140 ft | 520 kts | 104° |
| 2026-05-07 20:52 | 27.53036 | 22.96347 | 36097 ft | 522 kts | 104° |
| 2026-05-07 20:52 | 27.44833 | 23.27777 | 36099 ft | 522 kts | 104° |
| 2026-05-07 20:53 | 27.40233 | 23.45257 | 36104 ft | 521 kts | 104° |
| 2026-05-07 20:53 | 27.38161 | 23.53101 | 36327 ft | 524 kts | 104° |
| 2026-05-07 20:53 | 27.37122 | 23.57025 | 36666 ft | 523 kts | 104° |
| 2026-05-07 20:54 | 27.36084 | 23.60943 | 37015 ft | 522 kts | 104° |
| 2026-05-07 20:54 | 27.35055 | 23.64817 | 37321 ft | 521 kts | 104° |
| 2026-05-07 20:54 | 27.34016 | 23.68727 | 37600 ft | 522 kts | 104° |
| 2026-05-07 20:54 | 27.32977 | 23.72634 | 37845 ft | 522 kts | 104° |
| 2026-05-07 20:55 | 27.31935 | 23.76548 | 38041 ft | 523 kts | 104° |
| 2026-05-07 20:55 | 27.29831 | 23.84438 | 38104 ft | 526 kts | 104° |
| 2026-05-07 20:56 | 27.27742 | 23.92245 | 38110 ft | 522 kts | 104° |
| 2026-05-07 20:56 | 27.25648 | 24.00052 | 38109 ft | 520 kts | 104° |
| 2026-05-07 20:57 | 27.23560 | 24.07819 | 38114 ft | 518 kts | 104° |
| 2026-05-07 20:57 | 27.21467 | 24.15587 | 38090 ft | 519 kts | 104° |
| 2026-05-07 20:58 | 27.19385 | 24.23293 | 38110 ft | 519 kts | 104° |
| 2026-05-07 20:58 | 27.17278 | 24.31078 | 38119 ft | 520 kts | 104° |
| 2026-05-07 20:59 | 27.15165 | 24.38868 | 38115 ft | 522 kts | 104° |
| 2026-05-07 20:59 | 27.13040 | 24.46679 | 38119 ft | 523 kts | 104° |
| 2026-05-07 21:00 | 27.10923 | 24.54439 | 38114 ft | 523 kts | 104° |
| 2026-05-07 21:00 | 27.08781 | 24.62278 | 38118 ft | 524 kts | 104° |
| 2026-05-07 21:01 | 27.06640 | 24.70091 | 38119 ft | 523 kts | 104° |
| 2026-05-07 21:01 | 27.04496 | 24.77896 | 38118 ft | 523 kts | 104° |
| 2026-05-07 21:02 | 27.02364 | 24.85642 | 38118 ft | 522 kts | 104° |
| 2026-05-07 21:02 | 27.00218 | 24.93420 | 38116 ft | 521 kts | 104° |
| 2026-05-07 21:03 | 26.98075 | 25.01188 | 38110 ft | 521 kts | 104° |
| 2026-05-07 21:03 | 26.96071 | 25.08987 | 38124 ft | 520 kts | 103° |
| 2026-05-07 21:04 | 26.94143 | 25.16794 | 38124 ft | 519 kts | 103° |
| 2026-05-07 21:04 | 26.92212 | 25.24552 | 38118 ft | 519 kts | 103° |
| 2026-05-07 21:05 | 26.90244 | 25.32352 | 38120 ft | 520 kts | 103° |
| 2026-05-07 21:05 | 26.88266 | 25.40140 | 38116 ft | 520 kts | 103° |
| 2026-05-07 21:06 | 26.86278 | 25.47946 | 38120 ft | 520 kts | 103° |
| 2026-05-07 21:06 | 26.84304 | 25.55684 | 38118 ft | 520 kts | 103° |
| 2026-05-07 21:07 | 26.82311 | 25.63482 | 38117 ft | 520 kts | 103° |
| 2026-05-07 21:07 | 26.80640 | 25.70007 | 38118 ft | 520 kts | 103° |
| 2026-05-07 21:08 | 26.78640 | 25.77792 | 38118 ft | 520 kts | 103° |
| 2026-05-07 21:08 | 26.76648 | 25.85531 | 38116 ft | 520 kts | 103° |
| 2026-05-07 21:09 | 26.74637 | 25.93321 | 38116 ft | 520 kts | 103° |
| 2026-05-07 21:09 | 26.72625 | 26.01099 | 38113 ft | 520 kts | 103° |
| 2026-05-07 21:10 | 26.70609 | 26.08874 | 38114 ft | 520 kts | 103° |
| 2026-05-07 21:10 | 26.68587 | 26.16649 | 38114 ft | 520 kts | 103° |
| 2026-05-07 21:11 | 26.66563 | 26.24416 | 38118 ft | 520 kts | 103° |
| 2026-05-07 21:11 | 26.63529 | 26.36022 | 38110 ft | 520 kts | 103° |
| 2026-05-07 21:12 | 26.61495 | 26.43781 | 38114 ft | 520 kts | 103° |
| 2026-05-07 21:12 | 26.59467 | 26.51496 | 38114 ft | 519 kts | 103° |
| 2026-05-07 21:13 | 26.57423 | 26.59251 | 38116 ft | 519 kts | 103° |
| 2026-05-07 21:13 | 26.55378 | 26.66995 | 38111 ft | 519 kts | 103° |
| 2026-05-07 21:14 | 26.53332 | 26.74725 | 38109 ft | 519 kts | 103° |
| 2026-05-07 21:14 | 26.51281 | 26.82455 | 38107 ft | 518 kts | 103° |
| 2026-05-07 21:15 | 26.49391 | 26.89557 | 38106 ft | 518 kts | 104° |
| 2026-05-07 21:15 | 26.47302 | 26.97393 | 38104 ft | 517 kts | 104° |
| 2026-05-07 21:16 | 26.45247 | 27.05084 | 38103 ft | 517 kts | 104° |
| 2026-05-07 21:16 | 26.43191 | 27.12758 | 38107 ft | 516 kts | 104° |
| 2026-05-07 21:17 | 26.41129 | 27.20439 | 38104 ft | 516 kts | 104° |
| 2026-05-07 21:17 | 26.39066 | 27.28105 | 38100 ft | 515 kts | 104° |
| 2026-05-07 21:18 | 26.37006 | 27.35742 | 38105 ft | 515 kts | 104° |
| 2026-05-07 21:18 | 26.34934 | 27.43406 | 38107 ft | 515 kts | 104° |
| 2026-05-07 21:19 | 26.32873 | 27.51009 | 38097 ft | 516 kts | 104° |
| 2026-05-07 21:19 | 26.30791 | 27.58676 | 38094 ft | 516 kts | 104° |
| 2026-05-07 21:20 | 26.28703 | 27.66344 | 38092 ft | 517 kts | 104° |
| 2026-05-07 21:20 | 26.26622 | 27.73969 | 38096 ft | 517 kts | 104° |
| 2026-05-07 21:21 | 26.24520 | 27.81656 | 38092 ft | 518 kts | 104° |
| 2026-05-07 21:21 | 26.22413 | 27.89341 | 38092 ft | 518 kts | 104° |
| 2026-05-07 21:22 | 26.20302 | 27.97024 | 38089 ft | 519 kts | 104° |
| 2026-05-07 21:22 | 26.18184 | 28.04715 | 38084 ft | 519 kts | 104° |
| 2026-05-07 21:23 | 26.16073 | 28.12362 | 38085 ft | 519 kts | 104° |
| 2026-05-07 21:23 | 26.13947 | 28.20048 | 38081 ft | 519 kts | 105° |
| 2026-05-07 21:24 | 26.11817 | 28.27736 | 38083 ft | 519 kts | 105° |
| 2026-05-07 21:24 | 26.09681 | 28.35425 | 38080 ft | 520 kts | 105° |
| 2026-05-07 21:25 | 26.07532 | 28.43103 | 38079 ft | 520 kts | 105° |
| 2026-05-07 21:25 | 26.05387 | 28.50737 | 38078 ft | 520 kts | 105° |
| 2026-05-07 21:26 | 26.03225 | 28.58423 | 38079 ft | 520 kts | 105° |
| 2026-05-07 21:26 | 26.01061 | 28.66103 | 38072 ft | 520 kts | 105° |
| 2026-05-07 21:27 | 25.98892 | 28.73785 | 38073 ft | 520 kts | 105° |
| 2026-05-07 21:27 | 25.96733 | 28.81417 | 38072 ft | 520 kts | 105° |
| 2026-05-07 21:28 | 25.94556 | 28.89091 | 38071 ft | 521 kts | 105° |
| 2026-05-07 21:28 | 25.92369 | 28.96786 | 38068 ft | 521 kts | 105° |
| 2026-05-07 21:29 | 25.90182 | 29.04464 | 38075 ft | 521 kts | 105° |
| 2026-05-07 21:29 | 25.87991 | 29.12138 | 38070 ft | 521 kts | 105° |
| 2026-05-07 21:30 | 25.85808 | 29.19766 | 38067 ft | 521 kts | 105° |
| 2026-05-07 21:30 | 25.83608 | 29.27440 | 38066 ft | 521 kts | 105° |
| 2026-05-07 21:31 | 25.81404 | 29.35110 | 38066 ft | 521 kts | 106° |
| 2026-05-07 21:31 | 25.79196 | 29.42783 | 38067 ft | 521 kts | 106° |
| 2026-05-07 21:32 | 25.76993 | 29.50389 | 38065 ft | 521 kts | 106° |
| 2026-05-07 21:32 | 25.74759 | 29.58033 | 38069 ft | 520 kts | 106° |
| 2026-05-07 21:33 | 25.72525 | 29.65663 | 38069 ft | 520 kts | 106° |
| 2026-05-07 21:33 | 25.70290 | 29.73291 | 38066 ft | 520 kts | 106° |
| 2026-05-07 21:34 | 25.68051 | 29.80922 | 38068 ft | 520 kts | 106° |
| 2026-05-07 21:34 | 25.65807 | 29.88552 | 38071 ft | 520 kts | 106° |
| 2026-05-07 21:35 | 25.63573 | 29.96133 | 38065 ft | 521 kts | 106° |
| 2026-05-07 21:35 | 25.61317 | 30.03769 | 38061 ft | 521 kts | 106° |
| 2026-05-07 21:36 | 25.59063 | 30.11386 | 38054 ft | 518 kts | 107° |
| 2026-05-07 21:36 | 25.56859 | 30.18846 | 38043 ft | 507 kts | 106° |
| 2026-05-07 21:37 | 25.54631 | 30.26355 | 38057 ft | 518 kts | 107° |
| 2026-05-07 21:37 | 25.53498 | 30.30148 | 38251 ft | 512 kts | 107° |
| 2026-05-07 21:37 | 25.52377 | 30.33911 | 38335 ft | 517 kts | 107° |
| 2026-05-07 21:38 | 25.51243 | 30.37703 | 38167 ft | 520 kts | 107° |
| 2026-05-07 21:38 | 25.50104 | 30.41509 | 38106 ft | 521 kts | 107° |
| 2026-05-07 21:38 | 25.47830 | 30.49088 | 38034 ft | 522 kts | 107° |
| 2026-05-07 21:39 | 25.45858 | 30.56799 | 38017 ft | 518 kts | 95° |
| 2026-05-07 21:39 | 25.45598 | 30.64692 | 38032 ft | 511 kts | 80° |
| 2026-05-07 21:40 | 25.46774 | 30.72403 | 38028 ft | 507 kts | 75° |
| 2026-05-07 21:40 | 25.47967 | 30.80058 | 38031 ft | 509 kts | 76° |
| 2026-05-07 21:41 | 25.49097 | 30.87803 | 38018 ft | 509 kts | 76° |
| 2026-05-07 21:41 | 25.50207 | 30.95554 | 38023 ft | 510 kts | 76° |
| 2026-05-07 21:42 | 25.53362 | 31.17578 | 38029 ft | 510 kts | 76° |
| 2026-05-07 21:42 | 25.57772 | 31.48709 | 38003 ft | 512 kts | 76° |
| 2026-05-07 21:43 | 25.62108 | 31.79828 | 38009 ft | 515 kts | 76° |
| 2026-05-07 21:43 | 25.66374 | 32.11529 | 37992 ft | 522 kts | 76° |
| 2026-05-07 21:44 | 25.70569 | 32.43391 | 37949 ft | 529 kts | 77° |
| 2026-05-07 21:44 | 25.73880 | 32.75895 | 37882 ft | 543 kts | 98° |
| 2026-05-07 21:45 | 25.66942 | 32.90617 | 38030 ft | 543 kts | 126° |
| 2026-05-07 21:45 | 25.58412 | 33.04466 | 37965 ft | 546 kts | 124° |
| 2026-05-07 21:45 | 25.41584 | 33.32567 | 37920 ft | 547 kts | 125° |
| 2026-05-07 21:46 | 25.24693 | 33.60541 | 37928 ft | 546 kts | 125° |
| 2026-05-07 21:46 | 25.07790 | 33.88352 | 37933 ft | 543 kts | 125° |
| 2026-05-07 21:47 | 24.55307 | 34.72438 | 37310 ft | 522 kts | 131° |
| 2026-05-07 21:47 | 24.18898 | 35.08046 | 21189 ft | 0 kts | 158° |